createdAt,value
2018-03-18T00:00:09.303Z,100850.41
2018-03-18T00:02:37.456Z,100850.85
2018-03-18T00:05:05.566Z,100844.70
2018-03-18T00:07:33.638Z,100845.58
2018-03-18T00:10:01.750Z,100847.78
2018-03-18T00:12:29.997Z,100834.19
2018-03-18T00:14:58.609Z,100847.34
2018-03-18T00:17:26.766Z,100837.28
2018-03-18T00:19:54.869Z,100842.09
2018-03-18T00:22:22.949Z,100841.20
2018-03-18T00:24:51.099Z,100852.59
2018-03-18T00:27:19.174Z,100841.66
2018-03-18T00:29:47.262Z,100846.48
2018-03-18T00:32:15.397Z,100850.42
2018-03-18T00:34:43.562Z,100841.65
2018-03-18T00:37:11.787Z,100845.60
2018-03-18T00:39:39.878Z,100857.87
2018-03-18T00:42:07.975Z,100842.55
2018-03-18T00:44:36.081Z,100878.03
2018-03-18T00:47:04.179Z,100854.80
2018-03-18T00:49:32.343Z,100856.55
2018-03-18T00:52:01.275Z,100856.12
2018-03-18T00:54:29.401Z,100864.45
2018-03-18T00:56:57.498Z,100853.05
2018-03-18T00:59:26.056Z,100861.37
2018-03-18T01:01:54.172Z,100864.45
2018-03-18T01:04:22.263Z,100869.70
2018-03-18T01:06:50.391Z,100864.88
2018-03-18T01:09:18.496Z,100867.48
2018-03-18T01:11:46.666Z,100862.69
2018-03-18T01:14:15.545Z,100885.47
2018-03-18T01:16:43.677Z,100853.50
2018-03-18T01:19:11.797Z,100861.36
2018-03-18T01:21:39.897Z,100857.00
2018-03-18T01:24:08.012Z,100852.61
2018-03-18T01:26:36.614Z,100868.83
2018-03-18T01:29:04.765Z,100871.90
2018-03-18T01:31:32.841Z,100860.92
2018-03-18T01:34:01.734Z,100867.09
2018-03-18T01:36:29.895Z,100864.00
2018-03-18T01:38:57.972Z,100880.66
2018-03-18T01:41:26.079Z,100866.64
2018-03-18T01:43:54.212Z,100865.75
2018-03-18T01:46:22.272Z,100853.49
2018-03-18T01:48:50.378Z,100850.86
2018-03-18T01:51:18.940Z,100858.76
2018-03-18T01:53:47.026Z,100861.83
2018-03-18T01:56:15.130Z,100857.45
2018-03-18T01:58:43.277Z,100859.17
2018-03-18T02:01:11.376Z,100860.51
2018-03-18T02:03:39.492Z,100863.13
2018-03-18T02:06:07.570Z,100840.82
2018-03-18T02:08:35.664Z,100863.56
2018-03-18T02:11:03.750Z,100854.81
2018-03-18T02:13:31.915Z,100865.34
2018-03-18T02:16:00.033Z,100872.33
2018-03-18T02:18:28.216Z,100847.39
2018-03-18T02:20:56.335Z,100874.53
2018-03-18T02:23:24.422Z,100860.06
2018-03-18T02:25:53.530Z,100854.83
2018-03-18T02:28:21.630Z,100853.08
2018-03-18T02:30:49.867Z,100850.91
2018-03-18T02:33:17.951Z,100850.02
2018-03-18T02:35:46.057Z,100853.97
2018-03-18T02:51:14.194Z,100838.64
2018-03-18T02:53:42.412Z,100837.77
2018-03-18T02:56:10.500Z,100838.66
2018-03-18T02:58:38.619Z,100834.69
2018-03-18T03:01:06.715Z,100846.94
2018-03-18T03:03:34.809Z,100846.96
2018-03-18T03:06:03.063Z,100864.90
2018-03-18T03:08:31.203Z,100856.59
2018-03-18T03:10:59.296Z,100843.89
2018-03-18T03:13:28.438Z,100853.51
2018-03-18T03:15:56.665Z,100842.14
2018-03-18T03:18:24.769Z,100846.52
2018-03-18T03:20:52.866Z,100842.58
2018-03-18T03:23:20.972Z,100850.91
2018-03-18T03:25:49.064Z,100849.58
2018-03-18T03:28:17.154Z,100851.78
2018-03-18T03:30:45.279Z,100848.28
2018-03-18T03:33:14.323Z,100858.77
2018-03-18T03:35:42.436Z,100848.28
2018-03-18T03:38:10.534Z,100847.41
2018-03-18T03:40:38.982Z,100859.22
2018-03-18T03:43:07.079Z,100844.77
2018-03-18T03:45:35.205Z,100859.21
2018-03-18T03:48:03.298Z,100843.89
2018-03-18T03:50:31.397Z,100858.34
2018-03-18T03:52:59.485Z,100852.19
2018-03-18T03:55:27.622Z,100860.52
2018-03-18T03:57:55.824Z,100864.46
2018-03-18T04:00:23.915Z,100871.02
2018-03-18T04:02:52.092Z,100856.57
2018-03-18T04:05:20.218Z,100858.74
2018-03-18T04:07:48.302Z,100855.26
2018-03-18T04:10:16.434Z,100873.17
2018-03-18T04:12:44.564Z,100871.00
2018-03-18T04:15:13.499Z,100870.13
2018-03-18T04:17:41.577Z,100867.52
2018-03-18T04:20:09.696Z,100869.23
2018-03-18T04:22:37.802Z,100875.38
2018-03-18T04:25:05.921Z,100870.13
2018-03-18T04:27:34.057Z,100874.50
2018-03-18T04:30:03.151Z,100876.66
2018-03-18T04:32:31.321Z,100873.59
2018-03-18T04:34:59.411Z,100859.59
2018-03-18T04:37:28.513Z,100863.98
2018-03-18T04:39:56.693Z,100876.25
2018-03-18T04:42:24.810Z,100878.41
2018-03-18T04:44:52.898Z,100878.86
2018-03-18T04:47:20.985Z,100878.42
2018-03-18T04:49:49.093Z,100874.48
2018-03-18T04:52:17.197Z,100877.52
2018-03-18T04:54:45.301Z,100890.23
2018-03-18T04:57:13.418Z,100888.03
2018-03-18T04:59:41.527Z,100874.02
2018-03-18T05:02:09.625Z,100892.41
2018-03-18T05:04:37.760Z,100893.71
2018-03-18T05:07:06.138Z,100886.30
2018-03-18T05:09:34.231Z,100869.24
2018-03-18T05:12:02.321Z,100891.97
2018-03-18T05:14:30.433Z,100890.22
2018-03-18T05:16:58.565Z,100887.61
2018-03-18T05:19:26.715Z,100892.42
2018-03-18T05:21:54.979Z,100891.56
2018-03-18T05:24:23.085Z,100887.18
2018-03-18T05:26:51.191Z,100894.19
2018-03-18T05:29:19.315Z,100903.81
2018-03-18T05:31:47.445Z,100904.69
2018-03-18T05:34:15.522Z,100899.42
2018-03-18T05:36:44.329Z,100901.18
2018-03-18T05:39:12.427Z,100904.24
2018-03-18T05:41:40.539Z,100924.38
2018-03-18T05:44:08.664Z,100905.56
2018-03-18T05:46:36.783Z,100895.94
2018-03-18T05:49:04.888Z,100898.14
2018-03-18T05:51:32.977Z,100913.44
2018-03-18T05:54:01.077Z,100918.23
2018-03-18T05:56:29.206Z,100926.55
2018-03-18T05:58:57.393Z,100932.67
2018-03-18T06:01:25.539Z,100929.19
2018-03-18T06:03:53.642Z,100933.55
2018-03-18T06:06:21.725Z,100940.12
2018-03-18T06:08:49.815Z,100933.13
2018-03-18T06:11:17.927Z,100920.87
2018-03-18T06:13:46.015Z,100940.55
2018-03-18T06:16:14.093Z,100931.38
2018-03-18T06:18:42.337Z,100936.16
2018-03-18T06:21:10.411Z,100948.86
2018-03-18T06:23:39.540Z,100935.76
2018-03-18T06:26:07.652Z,100949.76
2018-03-18T06:28:35.791Z,100962.86
2018-03-18T06:31:04.644Z,100964.59
2018-03-18T06:33:32.806Z,100965.92
2018-03-18T06:36:00.905Z,100955.47
2018-03-18T06:38:29.010Z,100960.73
2018-03-18T06:40:57.134Z,100951.13
2018-03-18T06:43:25.324Z,100967.31
2018-03-18T06:45:53.412Z,100957.28
2018-03-18T06:48:22.122Z,100963.81
2018-03-18T06:50:50.224Z,100957.72
2018-03-18T06:53:18.303Z,100962.98
2018-03-18T06:55:46.415Z,100981.38
2018-03-18T06:58:14.493Z,100977.89
2018-03-18T07:00:42.605Z,100974.38
2018-03-18T07:03:10.709Z,100980.95
2018-03-18T07:05:38.841Z,100982.70
2018-03-18T07:08:06.926Z,100988.84
2018-03-18T07:10:35.036Z,100994.97
2018-03-18T07:13:03.131Z,101000.66
2018-03-18T07:15:31.234Z,100996.28
2018-03-18T07:17:59.336Z,101003.31
2018-03-18T07:20:27.447Z,100995.41
2018-03-18T07:22:55.540Z,100992.35
2018-03-18T07:25:23.923Z,101023.39
2018-03-18T07:27:52.056Z,100995.79
2018-03-18T07:30:20.151Z,101014.19
2018-03-18T07:32:48.259Z,100995.80
2018-03-18T07:35:16.615Z,101011.52
2018-03-18T07:37:45.304Z,101012.38
2018-03-18T07:40:14.146Z,101015.88
2018-03-18T07:42:42.281Z,101025.55
2018-03-18T07:45:10.376Z,101020.77
2018-03-18T07:47:38.477Z,101019.41
2018-03-18T07:50:07.555Z,101053.95
2018-03-18T07:52:35.693Z,101038.57
2018-03-18T07:55:03.813Z,101040.78
2018-03-18T07:57:32.681Z,101022.48
2018-03-18T08:00:00.781Z,101020.67
2018-03-18T08:02:29.282Z,101036.41
2018-03-18T08:04:57.655Z,101030.86
2018-03-18T08:07:25.792Z,101028.67
2018-03-18T08:09:53.833Z,101033.84
2018-03-18T08:12:21.965Z,101045.20
2018-03-18T08:14:50.036Z,101028.14
2018-03-18T08:17:18.211Z,101030.02
2018-03-18T08:19:46.300Z,101030.89
2018-03-18T08:22:14.489Z,101034.84
2018-03-18T08:24:42.605Z,101026.05
2018-03-18T08:27:10.751Z,101041.39
2018-03-18T08:29:38.863Z,101047.55
2018-03-18T08:32:07.045Z,101029.59
2018-03-18T08:34:35.117Z,101026.98
2018-03-18T08:37:03.219Z,101016.43
2018-03-18T08:39:31.323Z,101029.94
2018-03-18T08:41:59.417Z,101035.66
2018-03-18T08:44:27.524Z,101033.01
2018-03-18T08:46:55.635Z,101026.94
2018-03-18T08:49:23.725Z,101033.02
2018-03-18T08:51:51.823Z,101040.48
2018-03-18T08:54:20.289Z,101040.09
2018-03-18T08:56:49.417Z,101020.37
2018-03-18T08:59:17.849Z,101029.59
2018-03-18T09:01:45.942Z,101038.78
2018-03-18T09:04:14.105Z,101031.36
2018-03-18T09:06:42.271Z,101052.38
2018-03-18T09:09:10.322Z,101033.98
2018-03-18T09:11:38.472Z,101040.95
2018-03-18T09:14:06.591Z,101043.17
2018-03-18T09:16:34.687Z,101054.98
2018-03-18T09:19:02.786Z,101038.75
2018-03-18T09:21:30.882Z,101049.27
2018-03-18T09:23:58.981Z,101042.72
2018-03-18T09:26:27.817Z,101043.16
2018-03-18T09:28:55.917Z,101033.09
2018-03-18T09:31:24.010Z,101033.09
2018-03-18T09:33:52.366Z,101034.84
2018-03-18T09:36:20.479Z,101046.69
2018-03-18T09:38:48.599Z,101030.02
2018-03-18T09:41:16.704Z,101049.74
2018-03-18T09:43:44.815Z,101018.62
2018-03-18T09:46:13.693Z,101033.05
2018-03-18T09:48:41.815Z,101037.89
2018-03-18T09:51:09.947Z,101052.38
2018-03-18T09:53:38.119Z,101034.84
2018-03-18T09:56:06.250Z,101047.13
2018-03-18T09:58:34.372Z,101035.73
2018-03-18T10:01:02.472Z,101041.38
2018-03-18T10:03:30.558Z,101029.47
2018-03-18T10:05:59.144Z,101042.61
2018-03-18T10:08:27.250Z,101043.54
2018-03-18T10:10:55.339Z,101040.05
2018-03-18T10:13:23.448Z,101040.94
2018-03-18T10:28:51.587Z,101055.39
2018-03-18T10:31:20.271Z,101052.34
2018-03-18T10:33:48.361Z,101049.31
2018-03-18T10:36:21.413Z,101048.84
2018-03-18T10:38:49.506Z,101060.26
2018-03-18T10:41:17.688Z,101057.20
2018-03-18T10:43:45.801Z,101047.98
2018-03-18T10:46:13.894Z,101051.02
2018-03-18T10:48:42.031Z,101044.01
2018-03-18T10:51:10.146Z,101047.05
2018-03-18T10:53:38.221Z,101043.53
2018-03-18T10:56:06.633Z,101051.94
2018-03-18T10:58:34.726Z,101038.77
2018-03-18T11:01:09.178Z,101044.81
2018-03-18T11:03:37.264Z,101044.36
2018-03-18T11:06:05.362Z,101054.91
2018-03-18T11:08:33.448Z,101024.69
2018-03-18T11:11:01.603Z,101033.87
2018-03-18T11:13:29.690Z,101032.52
2018-03-18T11:15:57.889Z,101029.76
2018-03-18T11:18:25.974Z,101025.47
2018-03-18T11:20:54.089Z,101047.88
2018-03-18T11:23:22.159Z,101041.69
2018-03-18T11:25:50.277Z,101035.46
2018-03-18T11:28:18.799Z,101034.66
2018-03-18T11:30:46.888Z,101026.71
2018-03-18T11:33:14.984Z,101027.86
2018-03-18T11:35:43.160Z,101029.45
2018-03-18T11:38:11.470Z,101027.14
2018-03-18T11:40:39.901Z,101028.46
2018-03-18T11:43:08.126Z,101043.48
2018-03-18T11:45:36.207Z,101019.27
2018-03-18T11:48:04.350Z,101021.83
2018-03-18T11:50:32.498Z,101020.39
2018-03-18T11:53:00.570Z,101021.38
2018-03-18T11:55:28.736Z,101023.16
2018-03-18T11:57:56.858Z,101018.27
2018-03-18T12:00:24.952Z,101017.28
2018-03-18T12:02:53.077Z,101015.38
2018-03-18T12:05:21.218Z,101019.33
2018-03-18T12:07:49.366Z,101027.36
2018-03-18T12:10:17.438Z,101007.23
2018-03-18T12:12:45.540Z,101000.55
2018-03-18T12:15:13.658Z,101014.47
2018-03-18T12:17:41.825Z,101011.48
2018-03-18T12:20:09.976Z,101000.11
2018-03-18T12:22:38.071Z,101011.39
2018-03-18T12:25:06.173Z,101024.79
2018-03-18T12:27:34.254Z,101011.59
2018-03-18T12:30:02.362Z,101020.18
2018-03-18T12:32:30.495Z,101012.14
2018-03-18T12:34:58.600Z,101012.16
2018-03-18T12:37:26.708Z,101011.97
2018-03-18T12:40:06.769Z,101026.21
2018-03-18T12:42:46.722Z,101002.45
2018-03-18T12:45:14.837Z,101002.50
2018-03-18T12:47:42.934Z,101005.20
2018-03-18T12:50:11.030Z,101009.38
2018-03-18T12:52:39.114Z,101003.13
2018-03-18T12:55:07.850Z,101018.90
2018-03-18T12:57:36.617Z,101015.48
2018-03-18T13:00:04.694Z,100999.54
2018-03-18T13:02:32.870Z,100997.35
2018-03-18T13:18:06.009Z,100982.66
2018-03-18T13:20:34.122Z,100984.30
2018-03-18T13:23:02.792Z,100984.69
2018-03-18T13:25:30.893Z,100988.00
2018-03-18T13:27:58.982Z,100987.77
2018-03-18T13:30:27.078Z,101002.84
2018-03-18T13:32:55.183Z,100983.14
2018-03-18T13:35:23.272Z,100982.89
2018-03-18T13:37:51.410Z,100985.93
2018-03-18T13:40:19.516Z,100981.83
2018-03-18T13:42:47.610Z,100999.34
2018-03-18T13:45:15.792Z,100986.81
2018-03-18T13:47:43.882Z,100983.77
2018-03-18T13:50:11.970Z,100984.84
2018-03-18T13:52:40.092Z,100987.83
2018-03-18T13:55:08.208Z,100984.23
2018-03-18T13:57:36.278Z,100976.94
2018-03-18T14:00:04.408Z,100977.48
2018-03-18T14:02:33.390Z,100981.58
2018-03-18T14:05:01.502Z,100969.21
2018-03-18T14:07:29.599Z,100976.34
2018-03-18T14:09:57.705Z,100983.67
2018-03-18T14:12:25.814Z,100985.61
2018-03-18T14:14:53.900Z,100978.08
2018-03-18T14:17:22.026Z,100985.53
2018-03-18T14:19:50.151Z,100966.97
2018-03-18T14:22:18.233Z,100961.69
2018-03-18T14:24:46.341Z,100978.80
2018-03-18T14:27:14.458Z,100979.76
2018-03-18T14:29:42.614Z,100970.39
2018-03-18T14:32:10.715Z,100959.41
2018-03-18T14:34:38.866Z,100968.61
2018-03-18T14:50:06.987Z,100988.30
2018-03-18T14:52:35.103Z,100985.90
2018-03-18T14:55:03.179Z,100985.45
2018-03-18T14:57:31.283Z,100989.11
2018-03-18T14:59:59.367Z,100990.11
2018-03-18T15:02:27.472Z,100978.73
2018-03-18T15:04:55.586Z,100996.55
2018-03-18T15:07:23.680Z,100996.89
2018-03-18T15:09:51.909Z,100993.05
2018-03-18T15:12:19.951Z,100986.67
2018-03-18T15:14:48.098Z,100998.12
2018-03-18T15:17:16.920Z,101002.06
2018-03-18T15:19:45.058Z,100998.06
2018-03-18T15:22:13.191Z,101007.36
2018-03-18T15:24:41.299Z,101002.52
2018-03-18T15:27:09.386Z,100989.19
2018-03-18T15:29:37.474Z,100985.35
2018-03-18T15:32:05.556Z,100995.68
2018-03-18T15:34:33.703Z,101000.37
2018-03-18T15:37:01.782Z,100991.22
2018-03-18T15:39:29.915Z,100999.73
2018-03-18T15:41:58.018Z,101011.35
2018-03-18T15:44:26.171Z,101019.56
2018-03-18T15:46:54.414Z,100997.75
2018-03-18T15:49:22.621Z,100997.09
2018-03-18T15:51:50.967Z,100996.33
2018-03-18T15:54:19.048Z,101001.60
2018-03-18T15:56:48.107Z,100987.45
2018-03-18T15:59:16.276Z,101012.60
2018-03-18T16:01:44.388Z,100992.84
2018-03-18T16:04:12.466Z,101001.69
2018-03-18T16:06:40.566Z,100997.40
2018-03-18T16:09:09.515Z,100998.55
2018-03-18T16:11:37.713Z,100996.52
2018-03-18T16:14:05.830Z,101006.47
2018-03-18T16:16:33.928Z,100992.87
2018-03-18T16:19:02.043Z,100996.34
2018-03-18T16:21:30.164Z,100990.02
2018-03-18T16:23:58.253Z,101001.27
2018-03-18T16:26:26.330Z,101007.47
2018-03-18T16:28:54.479Z,101012.22
2018-03-18T16:31:23.292Z,101010.98
2018-03-18T16:33:52.388Z,101010.48
2018-03-18T16:36:20.530Z,101013.62
2018-03-18T16:38:48.747Z,101017.08
2018-03-18T16:41:16.820Z,101011.27
2018-03-18T16:43:44.979Z,101015.44
2018-03-18T16:46:13.142Z,101010.09
2018-03-18T16:48:41.819Z,101033.50
2018-03-18T16:51:09.938Z,101027.84
2018-03-18T16:53:38.036Z,101028.83
2018-03-18T16:56:06.558Z,101033.53
2018-03-18T16:58:34.667Z,101045.40
2018-03-18T17:01:02.758Z,101048.55
2018-03-18T17:03:30.869Z,101052.48
2018-03-18T17:05:59.041Z,101050.18
2018-03-18T17:08:27.115Z,101059.44
2018-03-18T17:10:55.288Z,101056.34
2018-03-18T17:13:23.663Z,101060.44
2018-03-18T17:15:51.916Z,101059.08
2018-03-18T17:18:20.041Z,101068.36
2018-03-18T17:20:48.177Z,101056.92
2018-03-18T17:23:16.318Z,101067.51
2018-03-18T17:25:45.039Z,101070.97
2018-03-18T17:28:13.150Z,101073.73
2018-03-18T17:30:41.256Z,101072.00
2018-03-18T17:33:09.354Z,101085.59
2018-03-18T17:35:37.555Z,101097.98
2018-03-18T17:38:05.698Z,101089.66
2018-03-18T17:40:33.874Z,101098.90
2018-03-18T17:43:01.987Z,101095.34
2018-03-18T17:45:41.876Z,101121.31
2018-03-18T17:48:21.933Z,101104.20
2018-03-18T17:51:02.875Z,101112.11
2018-03-18T17:53:44.885Z,101111.70
2018-03-18T17:56:24.957Z,101125.31
2018-03-18T17:58:53.078Z,101138.08
2018-03-18T18:01:21.189Z,101137.21
2018-03-18T18:03:49.291Z,101144.67
2018-03-18T18:06:17.387Z,101155.23
2018-03-18T18:08:45.513Z,101149.08
2018-03-18T18:11:13.616Z,101150.38
2018-03-18T18:13:41.734Z,101160.05
2018-03-18T18:16:10.137Z,101158.32
2018-03-18T18:18:38.205Z,101155.69
2018-03-18T18:21:06.302Z,101159.19
2018-03-18T18:23:34.390Z,101160.11
2018-03-18T18:26:02.561Z,101168.42
2018-03-18T18:28:30.680Z,101173.75
2018-03-18T18:30:58.747Z,101172.42
2018-03-18T18:33:27.155Z,101180.34
2018-03-18T18:35:55.293Z,101176.39
2018-03-18T18:38:23.411Z,101208.87
2018-03-18T18:40:51.505Z,101187.35
2018-03-18T18:43:19.656Z,101188.68
2018-03-18T18:45:47.729Z,101182.09
2018-03-18T18:48:15.808Z,101196.16
2018-03-18T18:50:44.394Z,101193.95
2018-03-18T18:53:12.502Z,101193.52
2018-03-18T18:55:40.604Z,101192.22
2018-03-18T18:58:08.726Z,101193.09
2018-03-18T19:00:36.808Z,101193.55
2018-03-18T19:03:05.297Z,101198.39
2018-03-18T19:05:33.313Z,101196.63
2018-03-18T19:08:01.424Z,101203.64
2018-03-18T19:10:29.565Z,101204.95
2018-03-18T19:12:57.738Z,101209.36
2018-03-18T19:15:26.647Z,101199.69
2018-03-18T19:17:54.869Z,101199.25
2018-03-18T19:20:23.037Z,101206.30
2018-03-18T19:22:51.207Z,101200.60
2018-03-18T19:25:19.291Z,101203.66
2018-03-18T19:27:48.279Z,101198.38
2018-03-18T19:30:16.382Z,101199.27
2018-03-18T19:32:44.789Z,101211.12
2018-03-18T19:35:13.501Z,101208.49
2018-03-18T19:37:41.681Z,101213.75
2018-03-18T19:40:09.753Z,101208.06
2018-03-18T19:42:37.843Z,101209.83
2018-03-18T19:45:06.067Z,101204.98
2018-03-18T19:47:39.096Z,101208.51
2018-03-18T19:50:07.249Z,101213.77
2018-03-18T19:52:35.319Z,101223.44
2018-03-18T19:55:04.475Z,101211.58
2018-03-18T19:57:32.893Z,101218.17
2018-03-18T20:00:00.975Z,101229.55
2018-03-18T20:02:29.071Z,101227.82
2018-03-18T20:04:57.517Z,101237.47
2018-03-18T20:07:26.025Z,101235.27
2018-03-18T20:09:54.155Z,101235.28
2018-03-18T20:12:22.337Z,101233.50
2018-03-18T20:14:50.920Z,101236.57
2018-03-18T20:17:19.480Z,101244.03
2018-03-18T20:19:47.575Z,101237.03
2018-03-18T20:22:15.689Z,101244.03
2018-03-18T20:24:44.801Z,101246.25
2018-03-18T20:27:13.013Z,101253.25
2018-03-18T20:29:41.982Z,101252.39
2018-03-18T20:32:10.075Z,101250.61
2018-03-18T20:34:38.180Z,101261.58
2018-03-18T20:37:06.435Z,101257.20
2018-03-18T20:39:34.548Z,101256.33
2018-03-18T20:42:02.637Z,101254.13
2018-03-18T20:44:31.102Z,101260.27
2018-03-18T20:46:59.200Z,101263.78
2018-03-18T20:49:27.337Z,101257.64
2018-03-18T20:51:55.440Z,101256.31
2018-03-18T20:54:23.551Z,101258.05
2018-03-18T20:56:51.707Z,101264.66
2018-03-18T20:59:19.805Z,101252.34
2018-03-18T21:01:47.903Z,101264.66
2018-03-18T21:04:16.846Z,101273.84
2018-03-18T21:06:44.985Z,101270.80
2018-03-18T21:09:13.093Z,101270.34
2018-03-18T21:11:41.198Z,101272.55
2018-03-18T21:14:09.299Z,101276.92
2018-03-18T21:16:37.537Z,101271.66
2018-03-18T21:19:10.597Z,101279.09
2018-03-18T21:21:38.672Z,101283.05
2018-03-18T21:24:06.767Z,101289.19
2018-03-18T21:26:34.994Z,101279.55
2018-03-18T21:29:03.803Z,101277.35
2018-03-18T21:31:31.966Z,101277.79
2018-03-18T21:34:00.067Z,101281.28
2018-03-18T21:36:28.795Z,101284.37
2018-03-18T21:38:56.949Z,101277.35
2018-03-18T21:41:25.087Z,101278.22
2018-03-18T21:43:53.909Z,101277.33
2018-03-18T21:46:21.999Z,101276.00
2018-03-18T21:48:50.617Z,101277.77
2018-03-18T21:51:18.726Z,101279.08
2018-03-18T21:53:46.798Z,101279.97
2018-03-18T21:56:15.068Z,101279.94
2018-03-18T21:58:43.613Z,101286.52
2018-03-18T22:01:12.355Z,101280.40
2018-03-18T22:03:41.295Z,101280.41
2018-03-18T22:06:09.475Z,101280.39
2018-03-18T22:08:38.174Z,101278.18
2018-03-18T22:11:07.368Z,101282.55
2018-03-18T22:13:35.470Z,101276.44
2018-03-18T22:16:03.576Z,101279.48
2018-03-18T22:18:31.704Z,101277.73
2018-03-18T22:21:00.415Z,101281.23
2018-03-18T22:23:28.530Z,101267.65
2018-03-18T22:25:58.145Z,101276.84
2018-03-18T22:28:26.441Z,101275.55
2018-03-18T22:30:55.159Z,101280.80
2018-03-18T22:33:23.255Z,101278.59
2018-03-18T22:35:51.511Z,101287.39
2018-03-18T22:38:19.584Z,101281.21
2018-03-18T22:40:47.675Z,101277.71
2018-03-18T22:43:16.036Z,101281.22
2018-03-18T22:45:44.137Z,101279.91
2018-03-18T22:48:12.589Z,101286.92
2018-03-18T22:50:40.678Z,101281.20
2018-03-18T22:53:08.814Z,101276.83
2018-03-18T22:55:37.038Z,101278.16
2018-03-18T22:58:05.467Z,101274.22
2018-03-18T23:00:33.585Z,101279.89
2018-03-18T23:03:01.677Z,101275.52
2018-03-18T23:05:29.910Z,101276.39
2018-03-18T23:07:59.010Z,101272.88
2018-03-18T23:10:27.106Z,101272.02
2018-03-18T23:12:56.145Z,101279.02
2018-03-18T23:15:24.237Z,101265.44
2018-03-18T23:17:59.197Z,101276.81
2018-03-18T23:20:27.312Z,101273.30
2018-03-18T23:22:55.398Z,101284.71
2018-03-18T23:38:23.499Z,101276.78
2018-03-18T23:40:51.641Z,101282.05
2018-03-18T23:43:19.722Z,101276.33
2018-03-18T23:45:48.554Z,101283.33
2018-03-18T23:48:16.978Z,101269.75
2018-03-18T23:50:48.679Z,101270.18
2018-03-18T23:53:16.811Z,101264.92
2018-03-18T23:55:44.893Z,101274.15
2018-03-18T23:58:12.998Z,101272.38
